createdAt,value
2016-04-24T09:34:10.381Z,1005.48
2016-04-24T09:35:10.353Z,1005.6
2016-04-24T09:36:10.325Z,1005.45
2016-04-24T09:37:10.295Z,1005.39
2016-04-24T09:38:10.267Z,1005.38
2016-04-24T09:39:10.253Z,1005.31
2016-04-24T09:40:10.226Z,1005.26
2016-04-24T09:41:10.197Z,1005.22
2016-04-24T09:42:10.169Z,1005.21
2016-04-24T09:43:10.140Z,1005.27
2016-04-24T09:44:10.111Z,1005.25
2016-04-24T09:45:10.083Z,1005.22
2016-04-24T09:46:10.070Z,1005.23
2016-04-24T09:47:10.026Z,1005.21
2016-04-24T09:48:10.013Z,1005.21
2016-04-24T09:49:09.985Z,1005.15
2016-04-24T09:50:09.955Z,1005.07
2016-04-24T09:51:09.927Z,1005.11
2016-04-24T09:52:09.898Z,1005.1
2016-04-24T09:53:09.871Z,1005.07
2016-04-24T09:54:10.044Z,1005.05
2016-04-24T09:55:09.813Z,1005.02
2016-04-24T09:56:09.784Z,1004.95
2016-04-24T09:57:09.756Z,1004.97
2016-04-24T09:58:09.743Z,1004.94
2016-04-24T09:59:09.698Z,1004.92
2016-04-24T10:00:09.670Z,1004.87
2016-04-24T10:01:09.642Z,1004.89
2016-04-24T10:02:09.613Z,1004.85
2016-04-24T10:03:09.584Z,1004.81
2016-04-24T10:04:09.556Z,1004.8
2016-04-24T10:05:09.528Z,1004.76
2016-04-24T10:06:09.498Z,1004.75
2016-04-24T10:07:09.470Z,1004.72
2016-04-24T10:08:09.473Z,1004.72
2016-04-24T10:09:09.414Z,1004.68
2016-04-24T10:10:09.400Z,1004.67
2016-04-24T10:11:09.356Z,1004.67
2016-04-24T10:12:09.328Z,1004.63
2016-04-24T10:13:09.377Z,1004.61
2016-04-24T10:14:09.270Z,1004.64
2016-04-24T10:15:09.242Z,1004.6
2016-04-24T10:16:09.228Z,1004.55
2016-04-24T10:17:09.185Z,1004.54
2016-04-24T10:18:09.172Z,1004.44
2016-04-24T10:19:09.143Z,1004.45
2016-04-24T10:20:09.115Z,1004.45
2016-04-24T10:21:09.086Z,1004.36
2016-04-24T10:22:09.057Z,1004.36
2016-04-24T10:23:09.029Z,1004.3
2016-04-24T10:24:08.999Z,1004.35
2016-04-24T10:25:08.972Z,1004.3
2016-04-24T10:26:08.943Z,1004.38
2016-04-24T10:27:08.915Z,1004.33
2016-04-24T10:28:08.885Z,1004.33
2016-04-24T10:29:08.858Z,1004.32
2016-04-24T10:30:08.829Z,1004.3
2016-04-24T10:31:08.801Z,1004.24
2016-04-24T10:32:08.787Z,1004.26
2016-04-24T10:33:08.743Z,1004.23
2016-04-24T10:34:08.731Z,1004.23
2016-04-24T10:35:08.702Z,1004.18
2016-04-24T10:36:08.674Z,1004.16
2016-04-24T10:37:08.645Z,1004.18
2016-04-24T10:38:08.616Z,1004.21
2016-04-24T10:39:08.603Z,1004.15
2016-04-24T10:40:08.559Z,1004.14
2016-04-24T10:41:08.530Z,1004.16
2016-04-24T10:42:08.502Z,1004.17
2016-04-24T10:43:08.489Z,1004.15
2016-04-24T10:44:08.476Z,1004.14
2016-04-24T10:45:08.448Z,1004.17
2016-04-24T10:46:08.419Z,1004.15
2016-04-24T10:47:08.374Z,1004.13
2016-04-24T10:48:08.347Z,1004.08
2016-04-24T10:49:08.333Z,1004.15
2016-04-24T10:50:08.305Z,1004.16
2016-04-24T10:51:08.277Z,1004.16
2016-04-24T10:52:08.247Z,1004.16
2016-04-24T10:53:08.219Z,1004.19
2016-04-24T10:54:08.191Z,1004.23
2016-04-24T10:55:08.943Z,1004.31
2016-04-24T10:56:08.149Z,1004.36
2016-04-24T10:57:08.121Z,1004.31
2016-04-24T10:58:08.091Z,1004.27
2016-04-24T10:59:08.070Z,1004.25
2016-04-24T11:00:08.098Z,1004.26
2016-04-24T11:01:08.110Z,1004.24
2016-04-24T11:02:08.123Z,1004.17
2016-04-24T11:03:08.136Z,1004.12
2016-04-24T11:04:08.159Z,1004.16
2016-04-24T11:05:08.146Z,1004.1
2016-04-24T11:06:08.133Z,1004.05
2016-04-24T11:07:08.150Z,1004.03
2016-04-24T11:08:08.105Z,1003.98
2016-04-24T11:09:08.106Z,1004.04
2016-04-24T11:10:08.068Z,1003.99
2016-04-24T11:11:08.059Z,1003.99
2016-04-24T11:12:08.037Z,1003.93
2016-04-24T11:13:08.029Z,1003.93
2016-04-24T11:14:08.005Z,1003.9
2016-04-24T11:15:07.979Z,1003.92
2016-04-24T11:16:07.951Z,1003.9
2016-04-24T11:17:07.925Z,1003.92
2016-04-24T11:18:07.899Z,1003.89
2016-04-24T11:19:07.872Z,1003.9
2016-04-24T11:20:07.843Z,1003.94
2016-04-24T11:21:07.831Z,1003.86
2016-04-24T11:22:07.803Z,1003.92
2016-04-24T11:23:07.774Z,1003.78
2016-04-24T11:24:07.746Z,1003.77
2016-04-24T11:25:07.812Z,1003.75
2016-04-24T11:26:07.690Z,1003.76
2016-04-24T11:27:07.678Z,1003.74
2016-04-24T11:28:07.649Z,1003.77
2016-04-24T11:29:07.621Z,1003.8
2016-04-24T11:30:07.593Z,1003.75
2016-04-24T11:31:07.564Z,1003.85
2016-04-24T11:32:07.536Z,1003.84
2016-04-24T11:33:07.522Z,1003.85
2016-04-24T11:34:07.494Z,1003.8
2016-04-24T11:35:07.465Z,1003.79
2016-04-24T11:36:07.452Z,1003.73
2016-04-24T11:37:07.424Z,1003.77
2016-04-24T11:38:07.395Z,1003.75
2016-04-24T11:39:07.366Z,1003.74
2016-04-24T11:40:08.010Z,1003.77
2016-04-24T11:41:07.324Z,1003.79
2016-04-24T11:42:07.296Z,1003.81
2016-04-24T11:43:07.284Z,1003.88
2016-04-24T11:44:07.240Z,1004.07
2016-04-24T11:45:07.226Z,1004.08
2016-04-24T11:46:07.198Z,1004.09
2016-04-24T11:47:07.169Z,1004.23
2016-04-24T11:48:07.157Z,1004.21
2016-04-24T11:49:07.128Z,1004.22
2016-04-24T11:50:07.099Z,1004.28
2016-04-24T11:51:07.071Z,1004.4
2016-04-24T11:52:07.043Z,1004.4
2016-04-24T11:53:07.029Z,1004.72
2016-04-24T11:54:07.001Z,1004.59
2016-04-24T11:55:06.973Z,1004.5
2016-04-24T11:56:06.943Z,1004.33
2016-04-24T11:57:06.931Z,1004.46
2016-04-24T11:58:06.903Z,1004.5
2016-04-24T11:59:06.873Z,1004.37
2016-04-24T12:00:06.861Z,1004.43
2016-04-24T12:01:06.831Z,1004.38
2016-04-24T12:02:06.803Z,1004.32
2016-04-24T12:03:06.775Z,1004.3
2016-04-24T12:04:06.762Z,1004.28
2016-04-24T12:05:06.733Z,1004.22
2016-04-24T12:06:06.705Z,1004.24
2016-04-24T12:07:06.677Z,1004.18
2016-04-24T12:08:06.647Z,1004.11
2016-04-24T12:09:06.635Z,1004.17
2016-04-24T12:10:06.606Z,1004.14
2016-04-24T12:11:06.593Z,1004.07
2016-04-24T12:12:06.565Z,1004.02
2016-04-24T12:13:06.552Z,1004.01
2016-04-24T12:14:06.507Z,1004.01
2016-04-24T12:15:06.479Z,1004.02
2016-04-24T12:16:06.451Z,1004.02
2016-04-24T12:17:06.438Z,1003.95
2016-04-24T12:18:06.409Z,1003.96
2016-04-24T12:19:06.380Z,1004.05
2016-04-24T12:20:06.351Z,1003.99
2016-04-24T12:21:06.339Z,1003.98
2016-04-24T12:22:06.467Z,1004.03
2016-04-24T12:23:06.281Z,1003.95
2016-04-24T12:24:06.254Z,1003.99
2016-04-24T12:25:06.225Z,1003.95
2016-04-24T12:26:06.212Z,1003.93
2016-04-24T12:27:06.184Z,1003.88
2016-04-24T12:28:06.154Z,1003.85
2016-04-24T12:29:06.126Z,1003.91
2016-04-24T12:30:06.098Z,1003.9
2016-04-24T12:31:06.084Z,1003.87
2016-04-24T12:32:06.056Z,1003.9
2016-04-24T12:33:06.028Z,1003.89
2016-04-24T12:34:05.999Z,1003.87
2016-04-24T12:35:05.970Z,1003.99
2016-04-24T12:36:05.942Z,1003.89
2016-04-24T12:37:05.928Z,1003.9
2016-04-24T12:38:05.900Z,1003.89
2016-04-24T12:39:05.888Z,1003.9
2016-04-24T12:40:05.858Z,1003.91
2016-04-24T12:41:05.814Z,1003.89
2016-04-24T12:42:05.802Z,1003.9
2016-04-24T12:43:05.773Z,1003.91
2016-04-24T12:44:05.744Z,1003.81
2016-04-24T12:45:05.716Z,1003.82
2016-04-24T12:46:05.685Z,1003.8
2016-04-24T12:47:05.657Z,1003.83
2016-04-24T12:48:05.644Z,1003.81
2016-04-24T12:49:05.615Z,1003.82
2016-04-24T12:50:05.585Z,1003.78
2016-04-24T12:51:05.574Z,1003.68
2016-04-24T12:52:05.529Z,1003.72
2016-04-24T12:53:05.501Z,1003.72
2016-04-24T12:54:05.481Z,1003.71
2016-04-24T12:55:05.452Z,1003.67
2016-04-24T12:56:05.424Z,1003.66
2016-04-24T12:57:05.410Z,1003.66
2016-04-24T12:58:05.383Z,1003.73
2016-04-24T12:59:05.354Z,1003.71
2016-04-24T13:00:05.325Z,1003.7
2016-04-24T13:01:05.312Z,1003.66
2016-04-24T13:02:05.268Z,1003.69
2016-04-24T13:03:05.255Z,1003.7
2016-04-24T13:04:05.227Z,1003.67
2016-04-24T13:05:05.198Z,1003.58
2016-04-24T13:06:05.169Z,1003.63
2016-04-24T13:07:05.140Z,1003.61
2016-04-24T13:08:05.112Z,1003.59
2016-04-24T13:09:05.084Z,1003.6
2016-04-24T13:10:05.070Z,1003.56
2016-04-24T13:11:05.043Z,1003.5
2016-04-24T13:12:05.014Z,1003.54
2016-04-24T13:13:04.985Z,1003.55
2016-04-24T13:14:04.956Z,1003.63
2016-04-24T13:15:04.943Z,1003.51
2016-04-24T13:16:04.914Z,1003.55
2016-04-24T13:17:04.886Z,1003.53
2016-04-24T13:18:04.858Z,1003.52
2016-04-24T13:19:04.845Z,1003.53
2016-04-24T13:20:04.816Z,1003.59
2016-04-24T13:21:04.788Z,1003.54
2016-04-24T13:22:04.759Z,1003.59
2016-04-24T13:23:04.731Z,1003.63
2016-04-24T13:24:04.702Z,1003.6
2016-04-24T13:25:05.064Z,1003.58
2016-04-24T13:26:04.661Z,1003.58
2016-04-24T13:27:04.633Z,1003.52
2016-04-24T13:28:04.603Z,1003.53
2016-04-24T13:29:04.606Z,1003.49
2016-04-24T13:30:05.125Z,1003.5
2016-04-24T13:31:04.533Z,1003.57
2016-04-24T13:32:04.505Z,1003.59
2016-04-24T13:33:04.477Z,1003.57
2016-04-24T13:34:04.448Z,1003.56
2016-04-24T13:35:04.418Z,1003.63
2016-04-24T13:36:04.406Z,1003.72
2016-04-24T13:37:04.377Z,1003.66
2016-04-24T13:38:04.349Z,1003.65
2016-04-24T13:39:04.336Z,1003.65
2016-04-24T13:40:04.292Z,1003.73
2016-04-24T13:41:04.482Z,1003.79
2016-04-24T13:42:04.251Z,1003.79
2016-04-24T13:43:04.222Z,1003.78
2016-04-24T13:44:04.209Z,1003.82
2016-04-24T13:45:04.180Z,1003.71
2016-04-24T13:46:04.152Z,1003.75
2016-04-24T13:47:04.123Z,1003.81
2016-04-24T13:48:04.095Z,1003.76
2016-04-24T13:49:04.081Z,1003.82
2016-04-24T13:50:04.053Z,1003.73
2016-04-24T13:51:04.025Z,1003.77
2016-04-24T13:52:04.012Z,1003.82
2016-04-24T13:53:03.983Z,1003.75
2016-04-24T13:54:03.955Z,1003.88
2016-04-24T13:55:03.926Z,1003.78
2016-04-24T13:56:03.897Z,1003.78
2016-04-24T13:57:03.885Z,1003.74
2016-04-24T13:58:03.856Z,1003.73
2016-04-24T13:59:03.827Z,1003.7
2016-04-24T14:00:03.799Z,1003.74
2016-04-24T14:01:03.771Z,1003.69
2016-04-24T14:02:03.757Z,1003.71
2016-04-24T14:03:03.729Z,1003.73
2016-04-24T14:04:03.700Z,1003.75
2016-04-24T14:05:03.671Z,1003.65
2016-04-24T14:06:03.643Z,1003.66
2016-04-24T14:07:03.614Z,1003.72
2016-04-24T14:08:03.585Z,1003.71
2016-04-24T14:09:03.573Z,1003.68
2016-04-24T14:10:03.810Z,1003.74
2016-04-24T14:11:04.360Z,1003.77
2016-04-24T14:12:03.487Z,1003.72
2016-04-24T14:13:03.474Z,1003.69
2016-04-24T14:14:03.446Z,1003.72
2016-04-24T14:15:03.418Z,1003.7
2016-04-24T14:16:03.389Z,1003.67
2016-04-24T14:17:03.365Z,1003.7
2016-04-24T14:18:03.336Z,1003.68
2016-04-24T14:19:08.808Z,1003.63
2016-04-24T14:20:03.295Z,1003.6
2016-04-24T14:21:03.267Z,1003.65
2016-04-24T14:22:03.238Z,1003.64
2016-04-24T14:23:03.209Z,1003.68
2016-04-24T14:24:03.197Z,1003.76
2016-04-24T14:25:03.809Z,1003.98
2016-04-24T14:26:03.155Z,1003.81
2016-04-24T14:27:03.111Z,1003.91
2016-04-24T14:28:03.098Z,1003.91
2016-04-24T14:29:03.070Z,1003.95
2016-04-24T14:30:03.041Z,1003.92
2016-04-24T14:31:03.012Z,1003.93
2016-04-24T14:32:02.999Z,1003.88
2016-04-24T14:33:02.985Z,1003.82
2016-04-24T14:34:02.942Z,1003.89
2016-04-24T14:35:02.929Z,1003.77
2016-04-24T14:36:02.901Z,1003.69
2016-04-24T14:37:02.871Z,1003.71
2016-04-24T14:38:02.844Z,1003.71
2016-04-24T14:39:02.816Z,1003.77
2016-04-24T14:40:03.099Z,1003.77
2016-04-24T14:41:02.773Z,1003.72
2016-04-24T14:42:02.746Z,1003.76
2016-04-24T14:43:02.717Z,1003.7
2016-04-24T14:44:02.687Z,1003.71
2016-04-24T14:45:02.659Z,1003.65
2016-04-24T14:46:02.646Z,1003.67
2016-04-24T14:47:02.617Z,1003.7
2016-04-24T14:48:02.589Z,1003.69
2016-04-24T14:49:02.576Z,1003.68
2016-04-24T14:50:02.532Z,1003.65
2016-04-24T14:51:02.519Z,1003.66
2016-04-24T14:52:02.491Z,1003.58
2016-04-24T14:53:02.462Z,1003.65
2016-04-24T14:54:02.434Z,1003.62
2016-04-24T14:55:02.420Z,1003.62
2016-04-24T14:56:02.392Z,1003.64
2016-04-24T14:57:02.364Z,1003.61
2016-04-24T14:58:02.335Z,1003.59
2016-04-24T14:59:02.306Z,1003.67
2016-04-24T15:00:02.278Z,1003.58
2016-04-24T15:01:02.250Z,1003.62
2016-04-24T15:02:02.236Z,1003.62
2016-04-24T15:03:02.208Z,1003.67
2016-04-24T15:04:02.180Z,1003.71
2016-04-24T15:05:02.151Z,1003.7
2016-04-24T15:06:02.138Z,1003.74
2016-04-24T15:07:02.094Z,1003.74
2016-04-24T15:08:02.065Z,1003.69
2016-04-24T15:09:02.037Z,1003.69
2016-04-24T15:10:02.024Z,1003.64
2016-04-24T15:11:02.088Z,1003.62
2016-04-24T15:12:01.982Z,1003.65
2016-04-24T15:13:01.938Z,1003.68
2016-04-24T15:14:01.910Z,1003.67
2016-04-24T15:15:01.881Z,1003.69
2016-04-24T15:16:01.852Z,1003.67
2016-04-24T15:17:01.823Z,1003.7
2016-04-24T15:18:01.811Z,1003.71
2016-04-24T15:19:01.782Z,1003.7
2016-04-24T15:20:01.754Z,1003.65
2016-04-24T15:21:01.725Z,1003.67
2016-04-24T15:22:01.697Z,1003.62
2016-04-24T15:23:01.667Z,1003.65
2016-04-24T15:24:01.639Z,1003.63
2016-04-24T15:25:02.439Z,1003.65
2016-04-24T15:26:01.598Z,1003.52
2016-04-24T15:27:01.570Z,1003.6
2016-04-24T15:28:01.541Z,1003.54
2016-04-24T15:29:01.512Z,1003.55
2016-04-24T15:30:01.483Z,1003.51
2016-04-24T15:31:01.455Z,1003.52
2016-04-24T15:32:01.427Z,1003.51
2016-04-24T15:33:01.398Z,1003.53
2016-04-24T15:34:01.369Z,1003.54
2016-04-24T15:35:01.357Z,1003.53
2016-04-24T15:36:01.328Z,1003.5
2016-04-24T15:37:01.299Z,1003.5
2016-04-24T15:38:01.271Z,1003.52
2016-04-24T15:39:01.242Z,1003.51
2016-04-24T15:40:01.213Z,1003.46
2016-04-24T15:41:01.185Z,1003.49
2016-04-24T15:42:01.157Z,1003.49
2016-04-24T15:43:01.128Z,1003.5
2016-04-24T15:44:01.115Z,1003.45
2016-04-24T15:45:01.087Z,1003.48
2016-04-24T15:46:01.057Z,1003.47
2016-04-24T15:47:01.029Z,1003.45
2016-04-24T15:48:01.000Z,1003.44
2016-04-24T15:49:00.973Z,1003.48
2016-04-24T15:50:00.943Z,1003.47
2016-04-24T15:51:00.931Z,1003.44
2016-04-24T15:52:00.902Z,1003.45
2016-04-24T15:53:00.873Z,1003.45
2016-04-24T15:54:00.845Z,1003.43
2016-04-24T15:55:00.820Z,1003.42
2016-04-24T15:56:02.900Z,1003.41
2016-04-24T15:57:00.778Z,1003.43
2016-04-24T15:58:00.747Z,1003.39
2016-04-24T15:59:00.724Z,1003.45
2016-04-24T16:00:00.696Z,1003.48
2016-04-24T16:01:00.668Z,1003.47
2016-04-24T16:02:00.639Z,1003.45
2016-04-24T16:03:00.626Z,1003.48
2016-04-24T16:04:00.598Z,1003.5
2016-04-24T16:05:00.569Z,1003.5
2016-04-24T16:06:00.540Z,1003.5
2016-04-24T16:07:00.528Z,1003.47
2016-04-24T16:08:00.490Z,1003.42
2016-04-24T16:09:00.461Z,1003.41
2016-04-24T16:10:00.449Z,1003.42
2016-04-24T16:11:00.420Z,1003.44
2016-04-24T16:12:00.391Z,1003.43
2016-04-24T16:13:00.363Z,1003.47
2016-04-24T16:14:00.350Z,1003.47
2016-04-24T16:15:00.321Z,1003.47
2016-04-24T16:16:00.293Z,1003.47
2016-04-24T16:17:00.264Z,1003.5
2016-04-24T16:18:00.235Z,1003.53
2016-04-24T16:19:00.207Z,1003.55
2016-04-24T16:20:00.194Z,1003.56
2016-04-24T16:21:00.166Z,1003.62
2016-04-24T16:22:00.137Z,1003.61
2016-04-24T16:23:00.124Z,1003.55
2016-04-24T16:24:00.079Z,1003.58
2016-04-24T16:25:00.067Z,1003.5
2016-04-24T16:26:00.038Z,1003.46
2016-04-24T16:27:00.010Z,1003.52
2016-04-24T16:27:59.981Z,1003.54
2016-04-24T16:28:59.968Z,1003.47
2016-04-24T16:29:59.923Z,1003.48
2016-04-24T16:30:59.896Z,1003.49
2016-04-24T16:31:59.884Z,1003.52
2016-04-24T16:32:59.870Z,1003.5
2016-04-24T16:33:59.825Z,1003.52
2016-04-24T16:34:59.797Z,1003.47
2016-04-24T16:35:59.769Z,1003.52
2016-04-24T16:36:59.756Z,1003.54
2016-04-24T16:37:59.727Z,1003.54
2016-04-24T16:38:59.698Z,1003.53
2016-04-24T16:39:59.670Z,1003.51
2016-04-24T16:40:59.641Z,1003.51
2016-04-24T16:41:59.613Z,1003.54
2016-04-24T16:42:59.584Z,1003.5
2016-04-24T16:43:59.572Z,1003.52
2016-04-24T16:44:59.543Z,1003.54
2016-04-24T16:45:59.514Z,1003.56
2016-04-24T16:46:59.486Z,1003.56
2016-04-24T16:47:59.458Z,1003.55
2016-04-24T16:48:59.429Z,1003.56
2016-04-24T16:49:59.399Z,1003.63
2016-04-24T16:50:59.388Z,1003.56
2016-04-24T16:51:59.358Z,1003.56
2016-04-24T16:52:59.330Z,1003.62
2016-04-24T16:53:59.301Z,1003.63
2016-04-24T16:54:59.288Z,1003.61
2016-04-24T16:55:59.244Z,1003.62
2016-04-24T16:56:59.216Z,1003.69
2016-04-24T16:57:59.203Z,1003.76
2016-04-24T16:58:59.174Z,1003.79
2016-04-24T16:59:59.145Z,1003.93
2016-04-24T17:00:59.118Z,1003.95
2016-04-24T17:01:59.089Z,1003.87
2016-04-24T17:02:59.060Z,1003.93
2016-04-24T17:03:59.031Z,1003.85
2016-04-24T17:04:59.003Z,1003.87
2016-04-24T17:05:58.990Z,1003.95
2016-04-24T17:06:58.962Z,1003.97
2016-04-24T17:07:58.933Z,1003.99
2016-04-24T17:08:58.904Z,1003.96
2016-04-24T17:09:58.876Z,1003.94
2016-04-24T17:10:58.847Z,1004.07
2016-04-24T17:11:58.819Z,1003.94
2016-04-24T17:12:58.790Z,1004
2016-04-24T17:13:58.762Z,1003.94
2016-04-24T17:14:58.749Z,1003.99
2016-04-24T17:15:58.720Z,1003.95
2016-04-24T17:16:58.691Z,1003.97
2016-04-24T17:17:58.663Z,1004
2016-04-24T17:18:58.635Z,1003.95
2016-04-24T17:19:58.605Z,1003.95
2016-04-24T17:20:58.593Z,1003.98
2016-04-24T17:21:58.549Z,1004
2016-04-24T17:22:58.521Z,1003.98
2016-04-24T17:23:58.491Z,1003.9
2016-04-24T17:24:58.479Z,1003.92
2016-04-24T17:25:58.481Z,1003.96
2016-04-24T17:26:58.421Z,1003.93
2016-04-24T17:27:58.393Z,1003.88
2016-04-24T17:28:58.365Z,1003.93
2016-04-24T17:29:58.335Z,1003.9
2016-04-24T17:30:58.307Z,1003.86
2016-04-24T17:31:58.279Z,1003.91
2016-04-24T17:32:58.250Z,1004
2016-04-24T17:33:58.221Z,1003.99
2016-04-24T17:34:58.224Z,1003.98
2016-04-24T17:35:58.181Z,1003.97
2016-04-24T17:36:58.151Z,1004.02
2016-04-24T17:37:58.123Z,1004.02
2016-04-24T17:38:58.094Z,1004.01
2016-04-24T17:39:58.067Z,1003.95
2016-04-24T17:40:58.037Z,1004.02
2016-04-24T17:41:58.009Z,1004.04
2016-04-24T17:42:57.980Z,1003.99
2016-04-24T17:43:57.952Z,1004.04
2016-04-24T17:44:57.938Z,1004
2016-04-24T17:45:57.894Z,1004.02
2016-04-24T17:46:57.881Z,1004.03
2016-04-24T17:47:57.853Z,1004.04
2016-04-24T17:48:57.825Z,1004.09
2016-04-24T17:49:57.796Z,1004.09
2016-04-24T17:50:57.767Z,1004.13
2016-04-24T17:51:57.738Z,1004.09
2016-04-24T17:52:57.711Z,1004.09
2016-04-24T17:53:57.682Z,1004.09
2016-04-24T17:54:57.653Z,1004.11
2016-04-24T17:55:57.937Z,1004.12
2016-04-24T17:56:57.612Z,1004.12
2016-04-24T17:57:57.582Z,1004.18
2016-04-24T17:58:57.554Z,1004.14
2016-04-24T17:59:57.526Z,1004.15
2016-04-24T18:00:57.498Z,1004.16
2016-04-24T18:01:57.468Z,1004.1
2016-04-24T18:02:57.440Z,1004.19
2016-04-24T18:03:57.412Z,1004.17
2016-04-24T18:04:57.383Z,1004.18
2016-04-24T18:05:57.417Z,1004.18
2016-04-24T18:06:57.326Z,1004.15
2016-04-24T18:07:57.297Z,1004.13
2016-04-24T18:08:57.269Z,1004.16
2016-04-24T18:09:57.240Z,1004.13
2016-04-24T18:10:57.228Z,1004.15
2016-04-24T18:11:57.199Z,1004.17
2016-04-24T18:12:57.170Z,1004.17
2016-04-24T18:13:57.142Z,1004.13
2016-04-24T18:14:57.113Z,1004.13
2016-04-24T18:15:57.084Z,1004.18
2016-04-24T18:16:57.056Z,1004.14
2016-04-24T18:17:57.027Z,1004.19
2016-04-24T18:18:56.999Z,1004.16
2016-04-24T18:19:56.970Z,1004.15
2016-04-24T18:20:56.942Z,1004.19
2016-04-24T18:21:56.929Z,1004.21
2016-04-24T18:22:56.885Z,1004.2
2016-04-24T18:23:56.872Z,1004.14
2016-04-24T18:24:56.827Z,1004.2
2016-04-24T18:25:56.815Z,1004.22
2016-04-24T18:26:56.786Z,1004.17
2016-04-24T18:27:56.757Z,1004.17
2016-04-24T18:28:56.729Z,1004.17
2016-04-24T18:29:56.701Z,1004.16
2016-04-24T18:30:56.672Z,1004.16
2016-04-24T18:31:56.643Z,1004.19
2016-04-24T18:32:56.614Z,1004.17
2016-04-24T18:33:56.587Z,1004.14
2016-04-24T18:34:56.557Z,1004.13
2016-04-24T18:35:56.529Z,1004.12
2016-04-24T18:36:56.500Z,1004.12
2016-04-24T18:37:56.473Z,1004.09
2016-04-24T18:38:56.443Z,1004.08
2016-04-24T18:39:56.415Z,1004.1
2016-04-24T18:40:56.417Z,1004.11
2016-04-24T18:41:56.358Z,1004.1
2016-04-24T18:42:56.329Z,1004.14
2016-04-24T18:43:56.301Z,1004.17
2016-04-24T18:44:56.272Z,1004.17
2016-04-24T18:45:56.259Z,1004.18
2016-04-24T18:46:56.214Z,1004.15
2016-04-24T18:47:56.186Z,1004.14
2016-04-24T18:48:56.158Z,1004.16
2016-04-24T18:49:56.130Z,1004.17
2016-04-24T18:50:56.100Z,1004.19
2016-04-24T18:51:56.088Z,1004.22
2016-04-24T18:52:56.059Z,1004.23
2016-04-24T18:53:56.031Z,1004.22
2016-04-24T18:54:56.002Z,1004.24
2016-04-24T18:55:56.161Z,1004.26
2016-04-24T18:56:55.944Z,1004.27
2016-04-24T18:57:55.916Z,1004.26
2016-04-24T18:58:55.888Z,1004.24
2016-04-24T18:59:55.860Z,1004.21
2016-04-24T19:00:55.830Z,1004.27
2016-04-24T19:01:55.802Z,1004.25
2016-04-24T19:02:55.773Z,1004.26
2016-04-24T19:03:55.745Z,1004.26
2016-04-24T19:04:55.716Z,1004.25
2016-04-24T19:05:55.687Z,1004.3
2016-04-24T19:06:55.660Z,1004.32
2016-04-24T19:07:55.631Z,1004.32
2016-04-24T19:08:55.602Z,1004.36
2016-04-24T19:09:55.574Z,1004.37
2016-04-24T19:10:56.061Z,1004.35
2016-04-24T19:11:55.689Z,1004.43
2016-04-24T19:12:55.487Z,1004.38
2016-04-24T19:13:55.460Z,1004.48
2016-04-24T19:14:55.430Z,1004.5
2016-04-24T19:15:55.403Z,1004.48
2016-04-24T19:16:55.374Z,1004.51
2016-04-24T19:17:55.345Z,1004.5
2016-04-24T19:18:55.317Z,1004.54
2016-04-24T19:19:55.303Z,1004.52
2016-04-24T19:20:55.259Z,1004.55
2016-04-24T19:21:55.216Z,1004.58
2016-04-24T19:22:55.193Z,1004.59
2016-04-24T19:23:55.166Z,1004.62
2016-04-24T19:24:55.137Z,1004.64
2016-04-24T19:25:55.107Z,1004.62
2016-04-24T19:26:55.079Z,1004.62
2016-04-24T19:27:55.051Z,1004.63
2016-04-24T19:28:55.023Z,1004.61
2016-04-24T19:29:54.994Z,1004.6
2016-04-24T19:30:54.965Z,1004.61
2016-04-24T19:31:54.936Z,1004.61
2016-04-24T19:32:54.909Z,1004.6
2016-04-24T19:33:54.879Z,1004.61
2016-04-24T19:34:54.851Z,1004.56
2016-04-24T19:35:54.822Z,1004.56
2016-04-24T19:36:54.794Z,1004.54
2016-04-24T19:37:54.765Z,1004.56
2016-04-24T19:38:54.728Z,1004.62
2016-04-24T19:39:54.700Z,1004.57
2016-04-24T19:40:54.828Z,1004.61
2016-04-24T19:41:54.643Z,1004.59
2016-04-24T19:42:54.614Z,1004.6
2016-04-24T19:43:54.586Z,1004.64
2016-04-24T19:44:54.558Z,1004.63
2016-04-24T19:45:54.529Z,1004.65
2016-04-24T19:46:54.500Z,1004.7
2016-04-24T19:47:54.471Z,1004.67
2016-04-24T19:48:54.443Z,1004.7
2016-04-24T19:49:54.415Z,1004.72
2016-04-24T19:50:54.386Z,1004.7
2016-04-24T19:51:54.358Z,1004.74
2016-04-24T19:52:54.329Z,1004.76
2016-04-24T19:53:54.301Z,1004.71
2016-04-24T19:54:54.271Z,1004.69
2016-04-24T19:55:54.243Z,1004.74
2016-04-24T19:56:54.292Z,1004.76
2016-04-24T19:57:54.171Z,1004.73
2016-04-24T19:58:54.142Z,1004.76
2016-04-24T19:59:54.113Z,1004.76
2016-04-24T20:00:54.084Z,1004.79
2016-04-24T20:01:54.056Z,1004.79
2016-04-24T20:02:54.028Z,1004.81
2016-04-24T20:03:54.000Z,1004.8
2016-04-24T20:04:53.986Z,1004.81
2016-04-24T20:05:53.957Z,1004.8
2016-04-24T20:06:53.972Z,1004.82
2016-04-24T20:07:54.002Z,1004.83
2016-04-24T20:08:54.001Z,1004.84
2016-04-24T20:09:54.015Z,1004.83
2016-04-24T20:10:54.014Z,1004.86
2016-04-24T20:11:54.002Z,1004.83
2016-04-24T20:12:53.988Z,1004.82
2016-04-24T20:13:53.976Z,1004.82
2016-04-24T20:14:53.963Z,1004.85
2016-04-24T20:15:53.947Z,1004.87
2016-04-24T20:16:53.939Z,1004.82
2016-04-24T20:17:53.900Z,1004.83
2016-04-24T20:18:53.876Z,1004.85
2016-04-24T20:19:53.854Z,1004.85
2016-04-24T20:20:53.829Z,1004.88
2016-04-24T20:21:53.803Z,1004.9
2016-04-24T20:22:53.777Z,1004.88
2016-04-24T20:23:53.751Z,1004.87
2016-04-24T20:24:53.724Z,1004.88
2016-04-24T20:25:53.697Z,1004.92
2016-04-24T20:26:53.670Z,1004.87
2016-04-24T20:27:53.642Z,1004.87
2016-04-24T20:28:53.614Z,1004.91
2016-04-24T20:29:53.586Z,1004.92
2016-04-24T20:30:53.559Z,1004.9
2016-04-24T20:31:53.530Z,1004.88
2016-04-24T20:32:53.501Z,1004.91
2016-04-24T20:33:53.472Z,1004.88
2016-04-24T20:34:53.444Z,1004.9
2016-04-24T20:35:53.415Z,1004.88
2016-04-24T20:36:53.388Z,1004.88
2016-04-24T20:37:53.359Z,1004.97
2016-04-24T20:38:53.331Z,1004.94
2016-04-24T20:39:53.286Z,1004.94
2016-04-24T20:40:53.258Z,1004.91
2016-04-24T20:41:53.230Z,1004.91
2016-04-24T20:42:53.200Z,1004.88
2016-04-24T20:43:53.188Z,1004.89
2016-04-24T20:44:53.144Z,1004.91
2016-04-24T20:45:53.115Z,1004.88
2016-04-24T20:46:53.086Z,1004.9
2016-04-24T20:47:53.058Z,1004.85
2016-04-24T20:48:53.029Z,1004.87
2016-04-24T20:49:53.002Z,1004.87
2016-04-24T20:50:52.972Z,1004.87
2016-04-24T20:51:52.944Z,1004.85
2016-04-24T20:52:52.915Z,1004.81
2016-04-24T20:53:52.888Z,1004.86
2016-04-24T20:54:52.858Z,1004.85
2016-04-24T20:55:52.830Z,1004.86
2016-04-24T20:56:52.801Z,1004.83
2016-04-24T20:57:52.788Z,1004.83
2016-04-24T20:58:52.743Z,1004.82
2016-04-24T20:59:52.715Z,1004.85
2016-04-24T21:00:52.687Z,1004.81
2016-04-24T21:01:52.659Z,1004.8
2016-04-24T21:02:52.614Z,1004.83
2016-04-24T21:03:52.585Z,1004.77
2016-04-24T21:04:52.557Z,1004.79
2016-04-24T21:05:52.528Z,1004.78
2016-04-24T21:06:52.500Z,1004.75
2016-04-24T21:07:52.471Z,1004.73
2016-04-24T21:08:52.442Z,1004.7
2016-04-24T21:09:52.414Z,1004.74
2016-04-24T21:10:52.386Z,1004.71
2016-04-24T21:11:52.467Z,1004.71
2016-04-24T21:12:52.328Z,1004.7
2016-04-24T21:13:52.300Z,1004.7
2016-04-24T21:14:52.271Z,1004.75
2016-04-24T21:15:52.242Z,1004.71
2016-04-24T21:16:52.199Z,1004.73
2016-04-24T21:17:52.186Z,1004.76
2016-04-24T21:18:52.157Z,1004.71
2016-04-24T21:19:52.128Z,1004.74
2016-04-24T21:20:52.099Z,1004.76
2016-04-24T21:21:52.056Z,1004.73
2016-04-24T21:22:52.028Z,1004.73
2016-04-24T21:23:52.014Z,1004.76
2016-04-24T21:24:51.970Z,1004.75
2016-04-24T21:25:51.941Z,1004.7
2016-04-24T21:26:51.912Z,1004.71
2016-04-24T21:27:51.884Z,1004.73
2016-04-24T21:28:51.857Z,1004.65
2016-04-24T21:29:51.812Z,1004.68
2016-04-24T21:30:51.798Z,1004.69
2016-04-24T21:31:51.755Z,1004.69
2016-04-24T21:32:51.726Z,1004.69
2016-04-24T21:33:51.697Z,1004.71
2016-04-24T21:34:51.668Z,1004.7
2016-04-24T21:35:51.640Z,1004.69
2016-04-24T21:36:51.612Z,1004.69
2016-04-24T21:37:51.583Z,1004.67
2016-04-24T21:38:51.554Z,1004.68
2016-04-24T21:39:51.526Z,1004.69
2016-04-24T21:40:51.498Z,1004.67
2016-04-24T21:41:51.453Z,1004.68